Time;durP1;ratioP1;P1;durP2;ratioP2;P2;SDS_P1;SDS_P2;PMS_P1;PMS_P2;Temp;Humidity;BMP_temperature;BMP_pressure;BME280_temperature;BME280_humidity;BME280_pressure;Samples;Min_cycle;Max_cycle;Signal;HPM_P1;HPM_P2
2024/02/25 00:01:51;;;;;;;8.05;3.92;;;;;;;8.48;56.32;97883.28;5070386;28;20448;-47
2024/02/25 00:04:17;;;;;;;3.53;2.28;;;;;;;8.45;57.20;97883.69;5070389;28;20032;-47
2024/02/25 00:06:45;;;;;;;3.25;1.80;;;;;;;8.49;56.76;97884.91;5070290;28;20115;-49
2024/02/25 00:09:14;;;;;;;2.92;1.70;;;;;;;8.56;56.67;97879.63;5071471;28;20028;-49
2024/02/25 00:11:42;;;;;;;2.60;1.33;;;;;;;8.60;56.08;97876.38;5070497;28;20036;-49
2024/02/25 00:14:10;;;;;;;25.38;18.25;;;;;;;8.55;55.99;97875.41;5070294;28;20107;-49
2024/02/25 00:16:36;;;;;;;36.85;27.20;;;;;;;8.43;56.51;97882.28;5070273;28;20021;-49
2024/02/25 00:19:02;;;;;;;22.05;13.55;;;;;;;8.45;56.78;97862.78;5075614;28;20402;-49
2024/02/25 00:21:28;;;;;;;10.07;6.63;;;;;;;8.49;56.56;97871.00;5075566;28;20025;-49
2024/02/25 00:23:54;;;;;;;5.32;2.65;;;;;;;8.47;57.08;97873.84;5074527;28;20067;-48
2024/02/25 00:26:20;;;;;;;16.27;6.80;;;;;;;8.50;56.65;97867.38;5074167;28;20028;-49
2024/02/25 00:28:45;;;;;;;2.95;2.05;;;;;;;8.41;56.05;97869.44;5074041;28;20052;-49
2024/02/25 00:31:11;;;;;;;6.05;2.22;;;;;;;8.37;57.19;97879.47;5074079;28;20032;-49
2024/02/25 00:33:37;;;;;;;5.30;1.65;;;;;;;8.45;57.03;97867.19;5075227;28;20031;-48
2024/02/25 00:36:03;;;;;;;4.50;2.63;;;;;;;8.52;57.01;97866.16;5075271;28;20043;-49
2024/02/25 00:38:28;;;;;;;7.30;2.38;;;;;;;8.58;56.55;97875.78;5074028;28;20059;-49
2024/02/25 00:40:54;;;;;;;4.65;2.10;;;;;;;8.65;56.71;97857.44;5075183;28;20044;-49
2024/02/25 00:43:20;;;;;;;7.22;2.33;;;;;;;8.78;56.59;97861.84;5075200;28;20451;-49
2024/02/25 00:45:45;;;;;;;5.40;1.70;;;;;;;8.85;55.71;97865.19;5075582;28;20028;-49
2024/02/25 00:48:12;;;;;;;7.43;2.00;;;;;;;8.74;55.47;97868.50;5075350;28;20462;-49
2024/02/25 00:50:38;;;;;;;5.78;2.38;;;;;;;8.56;55.77;97869.97;5075121;28;20024;-49
2024/02/25 00:53:04;;;;;;;3.30;1.75;;;;;;;8.46;56.04;97861.75;5074862;28;20554;-49
2024/02/25 00:55:29;;;;;;;6.15;3.05;;;;;;;8.32;56.46;97857.56;5073849;28;20123;-49
2024/02/25 00:57:56;;;;;;;7.53;5.60;;;;;;;8.20;56.72;97862.63;5073537;28;20111;-49
2024/02/25 01:00:24;;;;;;;4.28;3.70;;;;;;;8.08;56.92;97856.41;5073516;28;20024;-49
2024/02/25 01:02:50;;;;;;;5.97;2.42;;;;;;;8.13;57.30;97870.47;5074739;28;20074;-49
2024/02/25 01:05:16;;;;;;;4.28;2.72;;;;;;;8.09;57.07;97865.84;5074721;28;20032;-49
2024/02/25 01:07:43;;;;;;;3.15;1.65;;;;;;;7.99;57.64;97858.44;5074691;28;20508;-48
2024/02/25 01:10:09;;;;;;;3.47;1.75;;;;;;;8.05;57.80;97862.03;5074589;28;20042;-49
2024/02/25 01:12:35;;;;;;;3.50;2.45;;;;;;;8.09;57.76;97861.44;5073292;28;20120;-49
2024/02/25 01:15:01;;;;;;;5.70;1.70;;;;;;;8.18;57.39;97867.25;5073324;28;20051;-49
2024/02/25 01:17:26;;;;;;;3.15;1.60;;;;;;;8.29;57.19;97852.72;5074577;28;20028;-49
2024/02/25 01:19:52;;;;;;;4.97;1.30;;;;;;;8.34;56.56;97852.94;5074485;28;20471;-49
2024/02/25 01:22:18;;;;;;;5.82;2.22;;;;;;;8.33;56.41;97853.91;5074468;28;20020;-49
2024/02/25 01:24:43;;;;;;;2.28;1.52;;;;;;;8.36;57.08;97846.47;5074397;28;20033;-49
2024/02/25 01:27:09;;;;;;;4.38;2.45;;;;;;;8.43;56.88;97849.13;5072925;28;20039;-49
2024/02/25 01:29:35;;;;;;;2.97;2.20;;;;;;;8.49;56.37;97839.63;5072485;28;20056;-49
2024/02/25 01:32:00;;;;;;;3.72;1.75;;;;;;;8.58;55.87;97839.19;5074184;28;20416;-49
2024/02/25 01:34:28;;;;;;;3.70;1.58;;;;;;;8.62;55.44;97844.00;5072949;28;20043;-49
2024/02/25 01:36:54;;;;;;;2.75;1.30;;;;;;;8.55;55.61;97846.63;5072821;28;20510;-49
2024/02/25 01:39:22;;;;;;;2.75;1.42;;;;;;;8.60;56.09;97850.22;5072832;28;20091;-48
2024/02/25 01:41:50;;;;;;;3.50;1.40;;;;;;;8.70;55.65;97862.88;5074021;28;20016;-49
2024/02/25 01:44:16;;;;;;;1.98;1.20;;;;;;;8.69;55.14;97850.81;5073955;28;20429;-49
2024/02/25 01:46:45;;;;;;;2.88;2.03;;;;;;;8.62;55.12;97862.31;5072659;28;20558;-49
2024/02/25 01:49:20;;;;;;;53.08;47.75;;;;;;;8.59;55.62;97859.09;5073880;28;20046;-49
2024/02/25 01:51:46;;;;;;;11.93;7.35;;;;;;;8.64;55.60;97852.44;5073883;28;20099;-49
2024/02/25 01:54:12;;;;;;;7.93;3.53;;;;;;;8.68;56.15;97845.78;5073876;28;20104;-49
2024/02/25 01:56:39;;;;;;;4.18;2.08;;;;;;;8.78;55.34;97840.91;5073754;28;20494;-49
2024/02/25 01:59:06;;;;;;;3.25;1.35;;;;;;;8.94;54.29;97840.41;5073776;28;20020;-49
2024/02/25 02:01:36;;;;;;;6.35;2.30;;;;;;;8.88;54.89;97841.25;5073615;28;20058;-49
2024/02/25 02:04:03;;;;;;;5.80;3.05;;;;;;;8.99;54.84;97847.63;5073713;28;20028;-49
2024/02/25 02:06:32;;;;;;;14.57;3.25;;;;;;;9.00;54.70;97844.00;5072243;28;20034;-49
2024/02/25 02:08:59;;;;;;;3.67;2.13;;;;;;;9.03;53.90;97840.16;5073595;28;20020;-49
2024/02/25 02:11:27;;;;;;;4.13;2.30;;;;;;;8.95;54.64;97839.41;5073555;28;20017;-49
2024/02/25 02:13:53;;;;;;;6.93;4.95;;;;;;;8.96;54.18;97833.16;5073502;28;20500;-49
2024/02/25 02:16:19;;;;;;;5.45;2.30;;;;;;;8.95;54.32;97839.41;5073627;28;20033;-49
2024/02/25 02:18:47;;;;;;;3.58;2.05;;;;;;;8.93;54.24;97825.72;5073403;28;20505;-48
2024/02/25 02:21:17;;;;;;;4.40;2.33;;;;;;;8.95;54.89;97828.13;5073228;28;20028;-49
2024/02/25 02:23:43;;;;;;;5.55;3.10;;;;;;;8.88;54.67;97822.94;5073242;28;20402;-49
2024/02/25 02:26:08;;;;;;;3.58;2.40;;;;;;;8.94;54.69;97819.47;5072216;28;20031;-49
2024/02/25 02:28:34;;;;;;;6.47;4.13;;;;;;;8.96;54.22;97827.13;5073865;28;20566;-50
2024/02/25 02:31:00;;;;;;;3.00;2.10;;;;;;;8.88;54.54;97817.69;5075978;28;20048;-49
2024/02/25 02:33:28;;;;;;;5.80;2.47;;;;;;;8.97;54.62;97819.06;5073060;28;20514;-49
2024/02/25 02:35:53;;;;;;;5.75;1.90;;;;;;;9.03;54.09;97819.22;5072989;28;20522;-49
2024/02/25 02:38:20;;;;;;;5.88;2.30;;;;;;;9.02;53.92;97817.63;5071709;28;20020;-49
2024/02/25 02:40:45;;;;;;;6.65;1.92;;;;;;;9.02;54.50;97805.34;5070967;28;20036;-49
2024/02/25 02:43:11;;;;;;;3.10;1.77;;;;;;;9.06;54.25;97803.09;5071589;28;20410;-49
2024/02/25 02:45:39;;;;;;;6.00;2.67;;;;;;;8.95;53.87;97807.19;5072741;28;20443;-49
2024/02/25 02:48:09;;;;;;;2.15;1.27;;;;;;;8.94;54.15;97806.38;5071510;28;20074;-49
2024/02/25 02:50:38;;;;;;;3.08;1.65;;;;;;;8.99;54.69;97798.72;5071599;28;20028;-49
2024/02/25 02:53:03;;;;;;;2.58;1.73;;;;;;;9.13;54.00;97788.13;5072653;28;20103;-48
2024/02/25 02:55:30;;;;;;;3.13;1.73;;;;;;;9.23;54.13;97785.84;5071579;28;20024;-48
2024/02/25 02:57:55;;;;;;;4.05;1.40;;;;;;;9.34;53.47;97779.13;5072597;28;20056;-49
2024/02/25 03:00:21;;;;;;;3.58;2.25;;;;;;;9.27;53.16;97775.75;5071528;28;20120;-49
2024/02/25 03:02:47;;;;;;;7.15;3.05;;;;;;;9.22;53.26;97772.97;5072454;28;20028;-49
2024/02/25 03:05:12;;;;;;;23.17;20.58;;;;;;;9.28;53.60;97767.69;5072491;28;20032;-49
2024/02/25 03:07:38;;;;;;;7.25;3.58;;;;;;;9.43;53.03;97769.16;5071360;28;20123;-49
2024/02/25 03:10:06;;;;;;;4.28;1.95;;;;;;;9.33;52.41;97767.03;5070902;28;20044;-49
2024/02/25 03:12:32;;;;;;;6.40;2.83;;;;;;;9.19;52.29;97766.34;5071005;28;20559;-48
2024/02/25 03:14:57;;;;;;;4.03;2.10;;;;;;;9.26;52.59;97772.34;5072240;28;20025;-48
2024/02/25 03:17:23;;;;;;;3.45;1.80;;;;;;;9.32;51.64;97766.25;5072231;28;20032;-49
2024/02/25 03:19:49;;;;;;;2.30;1.65;;;;;;;9.39;52.12;97785.28;5072449;28;20395;-49
2024/02/25 03:22:15;;;;;;;2.03;1.52;;;;;;;9.38;51.39;97778.47;5072167;28;20025;-49
2024/02/25 03:24:40;;;;;;;8.23;6.95;;;;;;;9.32;51.80;97775.91;5070743;28;20032;-49
2024/02/25 03:27:06;;;;;;;3.20;2.65;;;;;;;9.39;52.25;97785.28;5070841;28;20218;-49
2024/02/25 03:29:32;;;;;;;3.90;1.75;;;;;;;9.42;51.24;97778.84;5070529;28;20044;-49
2024/02/25 03:31:58;;;;;;;3.95;2.00;;;;;;;9.44;51.68;97773.38;5072012;28;20103;-49
2024/02/25 03:34:23;;;;;;;3.40;1.85;;;;;;;9.54;51.52;97768.47;5072066;28;20024;-49
2024/02/25 03:36:49;;;;;;;2.33;1.50;;;;;;;9.48;50.91;97767.50;5070644;28;20035;-49
2024/02/25 03:39:16;;;;;;;3.10;2.05;;;;;;;9.39;51.69;97758.31;5071956;28;20028;-49
2024/02/25 03:41:42;;;;;;;5.63;4.57;;;;;;;9.53;52.29;97756.38;5071815;28;20099;-49
2024/02/25 03:44:07;;;;;;;2.47;1.67;;;;;;;9.66;51.07;97764.13;5070678;28;20077;-48
2024/02/25 03:46:33;;;;;;;4.18;3.10;;;;;;;9.67;51.12;97757.06;5071871;28;20105;-49
2024/02/25 03:49:00;;;;;;;4.13;2.00;;;;;;;9.72;51.49;97752.78;5070427;28;20182;-49
2024/02/25 03:51:26;;;;;;;4.68;2.45;;;;;;;9.65;50.55;97746.78;5070531;28;20024;-49
2024/02/25 03:53:51;;;;;;;4.60;2.38;;;;;;;9.64;50.89;97741.75;5071757;28;20027;-48
2024/02/25 03:56:17;;;;;;;1.55;1.20;;;;;;;9.61;50.50;97737.75;5070442;28;20033;-49
2024/02/25 03:58:43;;;;;;;2.60;1.23;;;;;;;9.54;50.43;97742.28;5071707;28;20020;-49
2024/02/25 04:01:09;;;;;;;3.95;3.25;;;;;;;9.48;50.10;97740.53;5071747;28;20025;-49
2024/02/25 04:03:35;;;;;;;2.58;1.48;;;;;;;9.35;49.85;97746.66;5070379;28;20020;-49
2024/02/25 04:06:01;;;;;;;2.83;1.65;;;;;;;9.19;50.76;97745.41;5070317;28;20509;-49
2024/02/25 04:08:27;;;;;;;2.83;1.58;;;;;;;9.12;51.06;97758.56;5071649;28;20032;-49
2024/02/25 04:10:52;;;;;;;2.90;0.98;;;;;;;9.14;51.14;97745.25;5070217;28;20024;-49
2024/02/25 04:13:18;;;;;;;4.28;3.03;;;;;;;9.12;50.93;97740.22;5071568;28;20024;-49
2024/02/25 04:15:44;;;;;;;6.65;2.40;;;;;;;9.11;51.13;97750.91;5071569;28;20073;-48
2024/02/25 04:18:10;;;;;;;1.67;1.33;;;;;;;9.11;51.27;97737.81;5070270;28;20519;-49
2024/02/25 04:20:36;;;;;;;5.90;1.88;;;;;;;9.06;51.14;97735.06;5071471;28;20016;-49
2024/02/25 04:23:02;;;;;;;3.60;1.45;;;;;;;8.93;51.17;97735.94;5071493;28;20025;-49
2024/02/25 04:25:28;;;;;;;4.70;2.55;;;;;;;8.83;51.08;97728.56;5071482;28;20035;-49
2024/02/25 04:27:53;;;;;;;5.40;2.22;;;;;;;8.76;51.92;97725.22;5071423;28;20029;-49
2024/02/25 04:30:19;;;;;;;2.88;2.58;;;;;;;8.72;52.15;97730.06;5053079;28;20083;-49
2024/02/25 04:32:46;;;;;;;1.60;1.42;;;;;;;8.75;52.52;97732.25;5071370;28;20072;-49
2024/02/25 04:35:13;;;;;;;5.65;1.70;;;;;;;8.71;52.36;97714.56;5070049;28;20044;-49
2024/02/25 04:37:39;;;;;;;1.38;1.08;;;;;;;8.67;51.90;97724.69;5071329;28;20482;-49
2024/02/25 04:40:06;;;;;;;3.53;1.25;;;;;;;8.58;52.09;97716.25;5071342;28;20017;-49
2024/02/25 04:42:31;;;;;;;3.80;2.47;;;;;;;8.53;52.84;97704.81;5069973;28;20028;-49
2024/02/25 04:44:57;;;;;;;1.92;1.40;;;;;;;8.62;52.79;97711.41;5071299;28;20029;-49
2024/02/25 04:47:23;;;;;;;4.53;2.33;;;;;;;8.56;52.04;97707.03;5071285;28;20024;-49
2024/02/25 04:49:48;;;;;;;2.50;1.42;;;;;;;8.40;52.01;97713.53;5071170;28;20056;-49
2024/02/25 04:52:14;;;;;;;3.25;1.90;;;;;;;8.21;52.96;97704.81;5069927;28;20020;-49
2024/02/25 04:54:43;;;;;;;5.90;4.25;;;;;;;8.17;53.95;97706.22;5053267;28;20059;-49
2024/02/25 04:57:08;;;;;;;3.83;2.35;;;;;;;8.34;53.08;97688.22;5071214;28;20146;-48
2024/02/25 04:59:34;;;;;;;5.60;2.75;;;;;;;8.43;52.10;97694.03;5071197;28;20027;-49
2024/02/25 05:02:00;;;;;;;2.75;1.92;;;;;;;8.40;52.52;97685.56;5071131;28;20096;-49
2024/02/25 05:04:25;;;;;;;4.30;2.85;;;;;;;8.33;52.84;97699.69;5073943;28;20032;-49
2024/02/25 05:06:51;;;;;;;4.30;3.25;;;;;;;8.24;52.53;97688.69;5073758;28;20057;-49
2024/02/25 05:09:17;;;;;;;5.75;5.07;;;;;;;8.23;52.89;97709.78;5074566;28;20108;-49
2024/02/25 05:11:42;;;;;;;3.13;2.75;;;;;;;8.20;52.34;97703.19;5074630;28;20095;-49
2024/02/25 05:14:08;;;;;;;2.92;2.03;;;;;;;8.12;52.53;97695.59;5074638;28;20103;-49
2024/02/25 05:16:34;;;;;;;2.78;2.13;;;;;;;8.11;52.81;97717.50;5073420;28;20031;-48
2024/02/25 05:18:59;;;;;;;5.00;2.22;;;;;;;8.04;53.19;97699.22;5073213;28;20028;-49
2024/02/25 05:21:25;;;;;;;4.00;2.10;;;;;;;8.09;53.34;97706.44;5074530;28;20025;-49
2024/02/25 05:23:51;;;;;;;12.55;11.23;;;;;;;7.97;53.56;97695.88;5074440;28;20074;-49
2024/02/25 05:26:17;;;;;;;6.82;4.32;;;;;;;8.03;53.81;97700.25;5073395;28;20033;-48
2024/02/25 05:28:42;;;;;;;5.68;3.83;;;;;;;7.96;53.37;97692.44;5074367;28;20025;-48
2024/02/25 05:31:13;;;;;;;4.05;2.20;;;;;;;7.93;53.41;97685.03;5074125;28;20486;-49
2024/02/25 05:33:39;;;;;;;4.07;3.05;;;;;;;7.92;54.28;97685.22;5072958;28;20424;-48
2024/02/25 05:36:05;;;;;;;2.38;1.73;;;;;;;7.91;53.82;97683.63;5074217;28;20074;-48
2024/02/25 05:38:31;;;;;;;5.18;2.25;;;;;;;7.91;54.01;97671.38;5072916;28;20024;-49
2024/02/25 05:40:57;;;;;;;4.97;3.08;;;;;;;7.86;54.05;97683.44;5073124;28;20077;-49
2024/02/25 05:43:22;;;;;;;2.42;1.50;;;;;;;7.80;54.54;97672.00;5074148;28;20095;-49
2024/02/25 05:45:48;;;;;;;2.50;2.00;;;;;;;7.80;54.03;97682.47;5074293;28;20038;-49
2024/02/25 05:48:14;;;;;;;2.83;2.45;;;;;;;7.74;54.41;97678.84;5074033;28;20028;-48
2024/02/25 05:50:40;;;;;;;3.70;1.70;;;;;;;7.71;53.89;97662.81;5072797;28;20469;-48
2024/02/25 05:53:05;;;;;;;6.28;4.35;;;;;;;7.68;54.97;97658.78;5073879;28;20487;-49
2024/02/25 05:55:31;;;;;;;6.35;5.10;;;;;;;7.65;54.71;97674.88;5072566;28;20028;-49
2024/02/25 05:57:57;;;;;;;5.25;3.28;;;;;;;7.62;55.09;97683.13;5073788;28;20056;-49
2024/02/25 06:00:22;;;;;;;7.20;2.97;;;;;;;7.50;55.17;97672.50;5073784;28;20544;-49
2024/02/25 06:02:50;;;;;;;4.78;3.38;;;;;;;7.48;55.82;97677.13;5072428;28;20052;-49
2024/02/25 06:05:17;;;;;;;5.63;4.63;;;;;;;7.50;55.08;97674.31;5073619;28;20025;-48
2024/02/25 06:07:44;;;;;;;7.50;6.13;;;;;;;7.57;55.13;97682.94;5073651;28;20020;-49
2024/02/25 06:10:09;;;;;;;12.63;10.40;;;;;;;7.54;55.42;97688.56;5073490;28;20024;-49
2024/02/25 06:12:37;;;;;;;7.70;5.57;;;;;;;7.46;55.47;97673.94;5072225;28;20482;-49
2024/02/25 06:15:11;;;;;;;9.15;6.28;;;;;;;7.40;55.82;97680.78;5071124;28;20039;-48
2024/02/25 06:17:41;;;;;;;6.85;6.03;;;;;;;7.40;56.35;97678.19;5072278;28;20028;-48
2024/02/25 06:20:09;;;;;;;4.25;2.47;;;;;;;7.45;55.73;97682.78;5072214;28;20024;-49
2024/02/25 06:22:40;;;;;;;5.43;4.05;;;;;;;7.34;56.00;97681.59;5072272;28;20025;-49
2024/02/25 06:25:06;;;;;;;6.05;2.90;;;;;;;7.47;56.17;97687.81;5071969;28;20052;-49
2024/02/25 06:27:36;;;;;;;4.88;3.58;;;;;;;7.47;55.62;97696.44;5071904;28;20107;-49
2024/02/25 06:30:04;;;;;;;4.32;3.70;;;;;;;7.49;56.14;97689.19;5071778;28;20070;-49
2024/02/25 06:32:30;;;;;;;2.78;2.05;;;;;;;7.46;54.93;97686.97;5071808;28;20057;-49
2024/02/25 06:34:59;;;;;;;9.75;8.60;;;;;;;7.42;56.19;97682.38;5071742;28;20078;-48
2024/02/25 06:37:28;;;;;;;10.55;9.45;;;;;;;7.47;55.94;97657.28;5071720;28;20494;-49
2024/02/25 06:39:54;;;;;;;5.00;2.97;;;;;;;7.50;55.67;97675.13;5073016;28;20020;-48
2024/02/25 06:42:20;;;;;;;7.93;5.10;;;;;;;7.56;55.34;97679.50;5073222;28;20039;-49
2024/02/25 06:44:45;;;;;;;12.55;8.43;;;;;;;7.63;55.67;97687.34;5071806;28;20029;-49
2024/02/25 06:47:14;;;;;;;6.82;4.10;;;;;;;7.82;55.42;97682.25;5072840;28;20024;-49
2024/02/25 06:49:41;;;;;;;6.93;4.43;;;;;;;7.96;55.34;97673.34;5071507;28;20024;-49
2024/02/25 06:52:07;;;;;;;4.80;3.80;;;;;;;8.23;54.50;97679.25;5072994;28;20028;-49
2024/02/25 06:54:33;;;;;;;5.60;3.72;;;;;;;8.45;53.39;97700.69;5072643;28;20563;-49
2024/02/25 06:57:02;;;;;;;5.30;3.38;;;;;;;8.55;52.43;97692.34;5072631;28;20028;-49
2024/02/25 06:59:31;;;;;;;11.10;6.50;;;;;;;8.57;52.35;97679.84;5072881;28;20020;-49
2024/02/25 07:01:56;;;;;;;9.20;8.27;;;;;;;8.67;53.60;97679.38;5071181;28;20503;-49
2024/02/25 07:04:24;;;;;;;13.20;11.82;;;;;;;8.76;52.12;97686.75;5071203;28;20055;-49
2024/02/25 07:06:50;;;;;;;9.70;8.82;;;;;;;8.85;53.07;97682.06;5071077;28;20540;-49
2024/02/25 07:09:16;;;;;;;3.60;2.42;;;;;;;9.54;51.38;97689.91;5072403;28;20017;-49
2024/02/25 07:11:42;;;;;;;8.48;7.57;;;;;;;10.04;49.29;97686.28;5072358;28;20103;-49
2024/02/25 07:14:08;;;;;;;6.05;3.88;;;;;;;10.29;49.32;97696.66;5072245;28;20043;-49
2024/02/25 07:16:41;;;;;;;13.00;8.35;;;;;;;10.36;48.48;97679.84;5071011;28;20457;-49
2024/02/25 07:19:07;;;;;;;4.15;1.85;;;;;;;10.13;48.77;97680.50;5072291;28;20024;-49
2024/02/25 07:21:33;;;;;;;9.52;7.05;;;;;;;9.90;49.78;97693.50;5072192;28;20024;-49
2024/02/25 07:23:59;;;;;;;3.35;2.92;;;;;;;9.77;49.84;97668.25;5072168;28;20031;-49
2024/02/25 07:26:24;;;;;;;4.75;3.95;;;;;;;9.68;50.52;97685.28;5070498;28;20032;-49
2024/02/25 07:28:51;;;;;;;5.72;3.80;;;;;;;9.75;51.08;97686.03;5071952;28;20021;-49
2024/02/25 07:31:19;;;;;;;6.65;4.35;;;;;;;9.75;50.55;97670.31;5054074;28;20520;-49
2024/02/25 07:33:46;;;;;;;10.30;5.82;;;;;;;9.66;51.31;97672.44;5070670;28;20139;-49
2024/02/25 07:36:13;;;;;;;4.13;3.08;;;;;;;9.69;51.12;97664.13;5071891;28;20099;-49
2024/02/25 07:38:39;;;;;;;5.50;2.95;;;;;;;9.70;50.51;97668.34;5070609;28;20033;-49
2024/02/25 07:41:06;;;;;;;3.00;1.73;;;;;;;9.55;50.32;97671.31;5070600;28;20024;-49
2024/02/25 07:43:38;;;;;;;2.50;2.05;;;;;;;9.43;50.76;97682.75;5071824;28;20028;-49
2024/02/25 07:46:04;;;;;;;4.68;1.27;;;;;;;9.41;50.73;97656.78;5071821;28;20029;-49
2024/02/25 07:48:31;;;;;;;5.57;2.38;;;;;;;9.33;51.18;97631.66;5070866;28;20048;-49
2024/02/25 07:50:57;;;;;;;2.70;1.13;;;;;;;9.32;51.12;97624.84;5071758;28;20021;-49
2024/02/25 07:53:23;;;;;;;2.95;1.30;;;;;;;9.30;51.50;97629.50;5071784;28;20082;-49
2024/02/25 07:55:48;;;;;;;2.97;1.10;;;;;;;9.33;50.39;97642.16;5070399;28;20032;-49
2024/02/25 07:58:14;;;;;;;3.88;2.20;;;;;;;9.39;51.07;97643.91;5070240;28;20051;-49
2024/02/25 08:00:43;;;;;;;2.00;1.10;;;;;;;9.58;50.06;97609.88;5054093;28;20487;-49
2024/02/25 08:03:11;;;;;;;5.25;1.10;;;;;;;9.64;50.31;97616.00;5071670;28;20048;-49
2024/02/25 08:05:37;;;;;;;4.10;1.85;;;;;;;9.70;50.52;97599.41;5071645;28;20024;-49
2024/02/25 08:08:03;;;;;;;2.88;1.05;;;;;;;9.76;50.10;97612.44;5071533;28;20402;-49
2024/02/25 08:10:28;;;;;;;2.28;1.40;;;;;;;9.79;51.61;97624.31;5071713;28;20064;-49
2024/02/25 08:12:55;;;;;;;3.97;1.50;;;;;;;9.88;54.22;97636.09;5071590;28;20580;-49
2024/02/25 08:15:21;;;;;;;1.77;1.15;;;;;;;9.93;51.81;97627.56;5070471;28;20059;-49
2024/02/25 08:17:50;;;;;;;2.85;1.30;;;;;;;9.95;50.62;97631.53;5070249;28;20056;-49
2024/02/25 08:20:16;;;;;;;3.10;2.08;;;;;;;9.97;50.67;97633.94;5071546;28;20016;-49
2024/02/25 08:22:41;;;;;;;4.43;2.47;;;;;;;10.08;49.69;97625.34;5070392;28;20597;-49
2024/02/25 08:25:09;;;;;;;6.43;4.88;;;;;;;10.23;49.19;97616.25;5071473;28;20041;-49
2024/02/25 08:27:50;;;;;;;5.07;3.60;;;;;;;10.09;48.90;97629.53;5071693;28;20103;-49
2024/02/25 08:30:15;;;;;;;5.10;2.13;;;;;;;10.15;48.64;97639.13;5071258;28;20079;-49
2024/02/25 08:32:41;;;;;;;4.60;1.80;;;;;;;9.95;48.84;97630.75;5071357;28;20410;-49
2024/02/25 08:35:07;;;;;;;2.40;1.38;;;;;;;9.85;50.25;97649.63;5071325;28;20024;-49
2024/02/25 08:37:37;;;;;;;5.57;1.42;;;;;;;10.10;49.59;97604.13;5071352;28;20094;-49
2024/02/25 08:40:03;;;;;;;30.40;27.95;;;;;;;10.14;49.46;97641.97;5073966;28;20482;-47
2024/02/25 08:42:37;;;;;;;5.30;4.05;;;;;;;10.06;49.67;97624.75;5073935;28;20106;-49
2024/02/25 08:45:03;;;;;;;4.72;3.97;;;;;;;10.18;48.87;97609.88;5075216;28;20027;-49
2024/02/25 08:47:32;;;;;;;5.05;2.70;;;;;;;10.28;49.63;97587.53;5072693;28;20029;-49
2024/02/25 08:49:58;;;;;;;2.10;1.38;;;;;;;10.46;48.74;97597.16;5075197;28;20020;-49
2024/02/25 08:52:26;;;;;;;2.35;1.30;;;;;;;10.91;48.31;97589.53;5074946;28;20490;-49
2024/02/25 08:54:52;;;;;;;3.10;1.80;;;;;;;11.71;47.77;97606.41;5074876;28;20108;-48
2024/02/25 08:57:18;;;;;;;5.13;2.00;;;;;;;12.82;45.50;97586.69;5075213;28;20111;-47
2024/02/25 08:59:43;;;;;;;2.97;1.10;;;;;;;13.84;41.98;97608.25;5074913;28;20017;-47
2024/02/25 09:02:09;;;;;;;2.05;1.05;;;;;;;13.63;41.38;97594.06;5073541;28;20029;-47
2024/02/25 09:04:34;;;;;;;2.72;1.08;;;;;;;13.12;43.02;97606.56;5074827;28;20490;-47
2024/02/25 09:07:01;;;;;;;3.75;1.67;;;;;;;12.42;45.09;97576.34;5073474;28;20375;-46
2024/02/25 09:09:27;;;;;;;3.20;1.05;;;;;;;11.90;45.73;97538.69;5074687;28;20098;-47
2024/02/25 09:11:54;;;;;;;4.10;1.63;;;;;;;11.58;47.11;97598.78;5074659;28;20075;-47
2024/02/25 09:14:20;;;;;;;3.30;1.73;;;;;;;11.75;47.63;97590.94;5074603;28;20032;-46
2024/02/25 09:16:46;;;;;;;6.65;1.15;;;;;;;11.86;47.69;97623.50;5074544;28;20066;-46
2024/02/25 09:19:12;;;;;;;3.15;1.25;;;;;;;11.70;47.75;97607.44;5074827;28;20028;-47
2024/02/25 09:21:38;;;;;;;5.20;1.30;;;;;;;11.30;51.72;97591.66;5074450;28;20545;-47
2024/02/25 09:24:04;;;;;;;6.50;1.23;;;;;;;11.32;51.81;97593.03;5074403;28;20115;-49
2024/02/25 09:26:30;;;;;;;3.05;1.75;;;;;;;11.65;50.85;97596.00;5073066;28;20024;-48
2024/02/25 09:28:56;;;;;;;6.05;1.45;;;;;;;11.76;50.29;97611.75;5074322;28;20074;-49
2024/02/25 09:31:21;;;;;;;2.33;1.30;;;;;;;11.78;48.53;97551.84;5074091;28;20048;-49
2024/02/25 09:33:54;;;;;;;5.15;2.35;;;;;;;11.72;48.09;97608.00;5074296;28;20028;-49
2024/02/25 09:36:25;;;;;;;32.13;28.38;;;;;;;11.87;46.97;97556.72;5073239;28;20020;-49
2024/02/25 09:38:51;;;;;;;33.63;30.58;;;;;;;11.87;47.07;97572.50;5074420;28;20024;-49
2024/02/25 09:41:29;;;;;;;14.35;11.48;;;;;;;12.10;47.39;97576.88;5073151;28;20021;-49
2024/02/25 09:43:56;;;;;;;10.77;3.53;;;;;;;12.26;46.18;97565.56;5074140;28;20058;-47
2024/02/25 09:46:25;;;;;;;4.15;2.53;;;;;;;12.32;46.03;97548.84;5072767;28;20024;-47
2024/02/25 09:48:54;;;;;;;5.70;2.78;;;;;;;13.09;46.66;97564.94;5073879;28;20021;-47
2024/02/25 09:51:24;;;;;;;2.63;0.82;;;;;;;13.54;43.13;97548.09;5072652;28;20035;-47
2024/02/25 09:53:52;;;;;;;4.07;1.55;;;;;;;13.35;45.46;97523.91;5073926;28;20078;-47
2024/02/25 09:56:21;;;;;;;3.40;1.13;;;;;;;13.05;43.57;97546.16;5072564;28;20068;-47
2024/02/25 09:58:48;;;;;;;7.78;1.33;;;;;;;13.14;44.14;97562.38;5073825;28;20107;-49
2024/02/25 10:01:16;;;;;;;3.90;1.33;;;;;;;13.54;43.10;97467.19;5072434;28;20031;-49
2024/02/25 10:03:42;;;;;;;4.35;1.40;;;;;;;14.16;40.88;97515.94;5072428;28;20059;-49
2024/02/25 10:06:08;;;;;;;3.97;0.95;;;;;;;14.05;41.63;97537.25;5072377;28;20133;-49
2024/02/25 10:08:51;;;;;;;4.20;1.00;;;;;;;14.12;40.60;97551.81;5073872;28;20035;-49
2024/02/25 10:11:17;;;;;;;1.65;0.63;;;;;;;13.91;40.03;97552.69;5073556;28;20027;-49
2024/02/25 10:13:46;;;;;;;4.53;1.05;;;;;;;13.93;41.50;97403.69;5073568;28;20035;-49
2024/02/25 10:16:19;;;;;;;2.30;0.90;;;;;;;14.18;40.95;97492.78;5072158;28;20033;-49
2024/02/25 10:18:48;;;;;;;2.03;0.57;;;;;;;14.56;40.22;97513.91;5072199;28;20510;-49
2024/02/25 10:21:13;;;;;;;1.45;0.82;;;;;;;15.17;38.92;97527.44;5073463;28;20028;-47
2024/02/25 10:23:39;;;;;;;1.17;0.47;;;;;;;15.83;37.40;97533.97;5073389;28;20036;-48
2024/02/25 10:26:23;;;;;;;2.05;0.60;;;;;;;16.07;37.35;97522.88;5073327;28;20398;-48
2024/02/25 10:29:02;;;;;;;2.10;0.80;;;;;;;16.49;37.07;97533.19;5073548;28;20068;-49
2024/02/25 10:31:28;;;;;;;4.50;1.15;;;;;;;17.10;38.31;97534.13;5071735;28;20052;-47
2024/02/25 10:33:58;;;;;;;2.17;0.85;;;;;;;17.56;34.76;97549.81;5071777;28;20031;-47
2024/02/25 10:36:27;;;;;;;1.75;0.90;;;;;;;17.39;34.19;97542.22;5073353;28;20107;-47
2024/02/25 10:39:00;;;;;;;3.72;0.75;;;;;;;16.43;34.56;97514.91;5071976;28;20119;-47
2024/02/25 10:41:27;;;;;;;4.72;1.30;;;;;;;15.77;36.45;97527.88;5073049;28;20371;-47
2024/02/25 10:44:03;;;;;;;1.48;0.65;;;;;;;16.10;35.86;97525.00;5072918;28;20024;-47
2024/02/25 10:46:44;;;;;;;3.30;0.68;;;;;;;15.94;35.52;97466.78;5072894;28;20028;-47
2024/02/25 10:49:15;;;;;;;3.20;1.25;;;;;;;15.87;36.02;97505.13;5071815;28;20035;-46
2024/02/25 10:51:41;;;;;;;1.40;0.80;;;;;;;16.23;35.69;97508.56;5072714;28;20059;-47
2024/02/25 10:54:09;;;;;;;3.72;1.00;;;;;;;16.84;35.37;97539.53;5072647;28;20035;-47
2024/02/25 10:56:37;;;;;;;1.58;0.88;;;;;;;17.00;34.19;97510.31;5071316;28;20035;-47
2024/02/25 10:59:05;;;;;;;1.65;1.05;;;;;;;17.14;34.28;97514.78;5071318;28;20059;-47
2024/02/25 11:01:32;;;;;;;2.58;0.82;;;;;;;17.13;34.28;97512.38;5071985;28;20510;-47
2024/02/25 11:03:58;;;;;;;3.00;0.80;;;;;;;16.66;34.42;97473.81;5054923;28;20496;-47
2024/02/25 11:06:35;;;;;;;2.72;0.82;;;;;;;16.58;35.55;97491.06;5071299;28;20037;-47
2024/02/25 11:09:16;;;;;;;2.60;0.93;;;;;;;16.79;34.46;97409.66;5072350;28;20379;-47
2024/02/25 11:11:43;;;;;;;2.60;0.68;;;;;;;16.54;33.34;97487.34;5072338;28;20039;-47
2024/02/25 11:14:19;;;;;;;5.43;3.85;;;;;;;16.08;34.45;97485.56;5071067;28;20025;-46
2024/02/25 11:16:49;;;;;;;1.60;1.35;;;;;;;15.82;34.96;97481.34;5071232;28;20024;-47
2024/02/25 11:19:23;;;;;;;2.65;0.73;;;;;;;15.54;34.81;97460.38;5072226;28;20154;-47
2024/02/25 11:21:56;;;;;;;6.07;4.10;;;;;;;15.28;35.91;97470.09;5072213;28;20406;-47
2024/02/25 11:24:52;;;;;;;2.72;1.50;;;;;;;15.77;35.57;97469.69;5072727;28;20625;-46
2024/02/25 11:27:18;;;;;;;3.13;1.10;;;;;;;15.84;35.14;97469.41;5070906;28;20087;-47
2024/02/25 11:29:44;;;;;;;2.42;1.00;;;;;;;15.84;35.47;97464.13;5070140;28;20052;-47
2024/02/25 11:32:09;;;;;;;3.15;0.93;;;;;;;15.88;34.89;97454.59;5071024;28;20020;-46
2024/02/25 11:34:37;;;;;;;2.00;1.35;;;;;;;15.71;35.84;97454.03;5071951;28;20035;-46
2024/02/25 11:37:07;;;;;;;2.42;1.83;;;;;;;15.92;34.60;97441.66;5070730;28;20059;-47
2024/02/25 11:39:35;;;;;;;1.55;0.75;;;;;;;16.03;34.80;97427.34;5071957;28;20109;-47